Time;durP1;ratioP1;P1;durP2;ratioP2;P2;SDS_P1;SDS_P2;PMS_P1;PMS_P2;Temp;Humidity;BMP_temperature;BMP_pressure;BME280_temperature;BME280_humidity;BME280_pressure;Samples;Min_cycle;Max_cycle;Signal;HPM_P1;HPM_P2
2022/03/13 00:00:13;;;;;;;;;;;21.60;19.40;;;;;;450524;262;961;-59
2022/03/13 00:02:16;;;;;;;;;;;21.70;19.30;;;;;;450449;263;1218;-59
2022/03/13 00:04:16;;;;;;;;;;;21.60;19.30;;;;;;450621;262;1419;-60
2022/03/13 00:06:17;;;;;;;;;;;21.70;19.30;;;;;;450429;263;1006;-59
2022/03/13 00:08:19;;;;;;;;;;;21.60;19.30;;;;;;450493;262;989;-59
2022/03/13 00:10:20;;;;;;;;;;;21.60;19.40;;;;;;450533;262;1069;-59
2022/03/13 00:12:28;;;;;;;;;;;21.60;19.40;;;;;;450433;263;1139;-60
2022/03/13 00:14:24;;;;;;;;;;;21.60;19.40;;;;;;450563;262;2144;-60
2022/03/13 00:16:25;;;;;;;;;;;21.60;19.40;;;;;;450456;263;1494;-60
2022/03/13 00:18:25;;;;;;;;;;;21.60;19.40;;;;;;450539;262;1379;-60
2022/03/13 00:20:27;;;;;;;;;;;21.60;19.40;;;;;;450561;262;980;-60
2022/03/13 00:22:28;;;;;;;;;;;21.60;19.30;;;;;;450477;263;1122;-60
2022/03/13 00:24:29;;;;;;;;;;;21.60;19.40;;;;;;450460;263;1087;-59
2022/03/13 00:26:35;;;;;;;;;;;21.60;19.40;;;;;;450446;263;1028;-60
2022/03/13 00:28:32;;;;;;;;;;;21.60;19.40;;;;;;450502;263;2248;-59
2022/03/13 00:30:35;;;;;;;;;;;21.60;19.30;;;;;;450442;263;1089;-60
2022/03/13 00:32:35;;;;;;;;;;;21.60;19.40;;;;;;450519;262;1565;-59
2022/03/13 00:34:36;;;;;;;;;;;21.50;19.30;;;;;;450471;263;2219;-60
2022/03/13 00:36:37;;;;;;;;;;;21.50;19.40;;;;;;450424;262;1072;-60
2022/03/13 00:38:39;;;;;;;;;;;21.60;19.30;;;;;;450666;262;1013;-60
2022/03/13 00:40:40;;;;;;;;;;;21.60;19.30;;;;;;450445;262;1122;-60
2022/03/13 00:42:41;;;;;;;;;;;21.60;19.30;;;;;;450468;262;1064;-59
2022/03/13 00:44:43;;;;;;;;;;;21.60;19.30;;;;;;450562;262;1081;-59
2022/03/13 00:46:44;;;;;;;;;;;21.60;19.40;;;;;;450469;262;1083;-59
2022/03/13 00:48:46;;;;;;;;;;;21.60;19.40;;;;;;450494;263;1214;-60
2022/03/13 00:50:47;;;;;;;;;;;21.60;19.30;;;;;;450541;262;984;-60
2022/03/13 00:52:48;;;;;;;;;;;21.50;19.30;;;;;;450614;262;1093;-60
2022/03/13 00:54:49;;;;;;;;;;;21.50;19.40;;;;;;450478;263;2151;-59
2022/03/13 00:56:51;;;;;;;;;;;21.40;19.40;;;;;;450444;262;992;-59
2022/03/13 00:58:52;;;;;;;;;;;21.40;19.50;;;;;;450476;263;1016;-60
2022/03/13 01:00:53;;;;;;;;;;;21.40;19.50;;;;;;450528;262;1091;-60
2022/03/13 01:02:55;;;;;;;;;;;21.40;19.40;;;;;;451188;262;1092;-60
2022/03/13 01:04:56;;;;;;;;;;;21.40;19.50;;;;;;450478;263;1175;-60
2022/03/13 01:06:57;;;;;;;;;;;21.40;19.40;;;;;;450550;262;986;-60
2022/03/13 01:08:59;;;;;;;;;;;21.40;19.40;;;;;;450505;263;972;-59
2022/03/13 01:11:00;;;;;;;;;;;21.50;19.40;;;;;;450505;262;1059;-59
2022/03/13 01:13:02;;;;;;;;;;;21.40;19.40;;;;;;450528;262;979;-59
2022/03/13 01:15:03;;;;;;;;;;;21.40;19.40;;;;;;450500;263;2139;-60
2022/03/13 01:17:04;;;;;;;;;;;21.40;19.40;;;;;;450389;262;1069;-60
2022/03/13 01:19:05;;;;;;;;;;;21.30;19.40;;;;;;450644;262;1210;-60
2022/03/13 01:21:07;;;;;;;;;;;21.30;19.50;;;;;;450419;263;1089;-59
2022/03/13 01:23:08;;;;;;;;;;;21.40;19.40;;;;;;450456;263;1074;-59
2022/03/13 01:25:09;;;;;;;;;;;21.40;19.40;;;;;;450560;262;1138;-60
2022/03/13 01:27:11;;;;;;;;;;;21.30;19.40;;;;;;450462;263;1159;-59
2022/03/13 01:29:12;;;;;;;;;;;21.30;19.40;;;;;;450452;262;1304;-60
2022/03/13 01:31:13;;;;;;;;;;;21.40;19.40;;;;;;450531;262;1119;-59
2022/03/13 01:33:15;;;;;;;;;;;21.40;19.40;;;;;;450579;262;979;-60
2022/03/13 01:35:16;;;;;;;;;;;21.30;19.40;;;;;;450465;262;2163;-60
2022/03/13 01:37:17;;;;;;;;;;;21.20;19.50;;;;;;450503;262;1160;-60
2022/03/13 01:39:19;;;;;;;;;;;21.20;19.50;;;;;;450614;262;1351;-59
2022/03/13 01:41:20;;;;;;;;;;;21.10;19.50;;;;;;450497;262;1098;-59
2022/03/13 01:43:21;;;;;;;;;;;21.20;19.40;;;;;;450524;263;991;-60
2022/03/13 01:45:23;;;;;;;;;;;21.20;19.40;;;;;;450529;262;1039;-60
2022/03/13 01:47:24;;;;;;;;;;;21.20;19.50;;;;;;450538;262;996;-59
2022/03/13 01:49:25;;;;;;;;;;;21.20;19.40;;;;;;450570;262;1465;-60
2022/03/13 01:51:27;;;;;;;;;;;21.20;19.40;;;;;;450457;262;1053;-60
2022/03/13 01:53:28;;;;;;;;;;;21.20;19.50;;;;;;450494;263;1079;-59
2022/03/13 01:55:30;;;;;;;;;;;21.20;19.40;;;;;;450539;262;2198;-59
2022/03/13 01:57:32;;;;;;;;;;;21.20;19.50;;;;;;450479;262;1296;-59
2022/03/13 01:59:33;;;;;;;;;;;21.20;19.40;;;;;;450542;262;1091;-60
2022/03/13 02:01:35;;;;;;;;;;;21.20;19.40;;;;;;450431;263;1030;-59
2022/03/13 02:03:36;;;;;;;;;;;21.20;19.40;;;;;;450501;262;1135;-59
2022/03/13 02:05:37;;;;;;;;;;;21.30;19.40;;;;;;450472;262;1251;-60
2022/03/13 02:07:39;;;;;;;;;;;21.20;19.40;;;;;;450482;262;1084;-60
2022/03/13 02:09:40;;;;;;;;;;;21.20;19.40;;;;;;450398;263;982;-60
2022/03/13 02:11:42;;;;;;;;;;;21.30;19.40;;;;;;450475;262;1061;-60
2022/03/13 02:13:43;;;;;;;;;;;21.20;19.40;;;;;;450536;263;1445;-60
2022/03/13 02:15:44;;;;;;;;;;;21.20;19.40;;;;;;450444;263;2199;-59
2022/03/13 02:17:45;;;;;;;;;;;21.20;19.40;;;;;;450460;263;1223;-59
2022/03/13 02:19:47;;;;;;;;;;;21.20;19.30;;;;;;450466;263;1166;-60
2022/03/13 02:21:49;;;;;;;;;;;21.20;19.40;;;;;;450388;262;1026;-60
2022/03/13 02:23:50;;;;;;;;;;;21.20;19.40;;;;;;450496;262;1416;-59
2022/03/13 02:25:51;;;;;;;;;;;21.20;19.40;;;;;;450458;262;1000;-60
2022/03/13 02:27:52;;;;;;;;;;;21.20;19.40;;;;;;450673;262;1112;-60
2022/03/13 02:29:54;;;;;;;;;;;21.20;19.40;;;;;;450621;262;985;-59
2022/03/13 02:31:55;;;;;;;;;;;21.10;19.40;;;;;;450656;262;1081;-59
2022/03/13 02:33:56;;;;;;;;;;;21.10;19.40;;;;;;450480;263;1069;-60
2022/03/13 02:35:58;;;;;;;;;;;21.10;19.40;;;;;;450551;262;2218;-59
2022/03/13 02:37:59;;;;;;;;;;;21.10;19.40;;;;;;450485;262;1038;-60
2022/03/13 02:40:00;;;;;;;;;;;21.10;19.40;;;;;;450641;262;1280;-59
2022/03/13 02:42:02;;;;;;;;;;;21.10;19.40;;;;;;450508;262;1122;-60
2022/03/13 02:44:03;;;;;;;;;;;21.10;19.40;;;;;;450511;263;1104;-60
2022/03/13 02:46:04;;;;;;;;;;;21.10;19.40;;;;;;450523;262;1116;-60
2022/03/13 02:48:06;;;;;;;;;;;21.10;19.40;;;;;;450474;263;1087;-59
2022/03/13 02:50:07;;;;;;;;;;;21.10;19.40;;;;;;450479;262;1228;-59
2022/03/13 02:52:08;;;;;;;;;;;21.10;19.50;;;;;;450447;262;999;-60
2022/03/13 02:54:10;;;;;;;;;;;21.10;19.50;;;;;;450623;262;979;-59
2022/03/13 02:56:11;;;;;;;;;;;21.10;19.40;;;;;;450450;263;2198;-59
2022/03/13 02:58:12;;;;;;;;;;;21.00;19.40;;;;;;450557;262;1046;-60
2022/03/13 03:00:14;;;;;;;;;;;21.10;19.40;;;;;;450507;262;960;-59
2022/03/13 03:02:15;;;;;;;;;;;21.20;19.40;;;;;;450430;262;1062;-60
2022/03/13 03:04:16;;;;;;;;;;;21.10;19.40;;;;;;450506;263;1037;-60
2022/03/13 03:06:18;;;;;;;;;;;21.10;19.30;;;;;;450589;262;1165;-60
2022/03/13 03:08:19;;;;;;;;;;;21.10;19.30;;;;;;450673;262;1247;-59
2022/03/13 03:10:21;;;;;;;;;;;21.20;19.30;;;;;;450537;262;1094;-61
2022/03/13 03:12:22;;;;;;;;;;;21.20;19.30;;;;;;450452;263;1094;-59
2022/03/13 03:14:23;;;;;;;;;;;21.20;19.30;;;;;;450495;263;1077;-60
2022/03/13 03:16:25;;;;;;;;;;;21.10;19.30;;;;;;450463;263;2215;-59
2022/03/13 03:18:26;;;;;;;;;;;21.10;19.30;;;;;;450519;263;1146;-59
2022/03/13 03:20:27;;;;;;;;;;;21.10;19.30;;;;;;450641;262;1251;-59
2022/03/13 03:22:29;;;;;;;;;;;21.10;19.30;;;;;;450603;262;964;-59
2022/03/13 03:24:30;;;;;;;;;;;21.10;19.30;;;;;;450444;263;967;-59
2022/03/13 03:26:31;;;;;;;;;;;21.10;19.30;;;;;;450496;263;1085;-60
2022/03/13 03:28:34;;;;;;;;;;;21.10;19.30;;;;;;450499;263;1076;-60
2022/03/13 03:30:34;;;;;;;;;;;21.10;19.30;;;;;;450473;263;1413;-60
2022/03/13 03:32:35;;;;;;;;;;;21.10;19.30;;;;;;450523;262;986;-60
2022/03/13 03:34:36;;;;;;;;;;;21.10;19.30;;;;;;450529;263;1017;-60
2022/03/13 03:36:39;;;;;;;;;;;21.20;19.20;;;;;;450494;262;2203;-59
2022/03/13 03:38:39;;;;;;;;;;;21.30;19.20;;;;;;450460;263;1643;-60
2022/03/13 03:40:41;;;;;;;;;;;21.30;19.20;;;;;;450492;262;1278;-59
2022/03/13 03:42:42;;;;;;;;;;;21.30;19.20;;;;;;450454;263;995;-60
2022/03/13 03:44:43;;;;;;;;;;;21.30;19.20;;;;;;450678;262;1072;-59
2022/03/13 03:46:45;;;;;;;;;;;21.40;19.20;;;;;;450508;262;1088;-60
2022/03/13 03:48:46;;;;;;;;;;;21.30;19.20;;;;;;450607;262;1175;-60
2022/03/13 03:50:47;;;;;;;;;;;21.30;19.20;;;;;;450467;262;1190;-60
2022/03/13 03:52:50;;;;;;;;;;;21.30;19.20;;;;;;450464;262;1033;-60
2022/03/13 03:54:51;;;;;;;;;;;21.30;19.10;;;;;;450479;262;2332;-60
2022/03/13 03:56:51;;;;;;;;;;;21.30;19.20;;;;;;450428;263;2218;-59
2022/03/13 03:58:53;;;;;;;;;;;21.30;19.20;;;;;;450470;263;1010;-58
2022/03/13 04:00:54;;;;;;;;;;;21.40;19.20;;;;;;450502;262;1007;-59
2022/03/13 04:02:55;;;;;;;;;;;21.40;19.10;;;;;;450486;263;1104;-59
2022/03/13 04:04:57;;;;;;;;;;;21.40;19.10;;;;;;450478;261;1214;-60
2022/03/13 04:06:58;;;;;;;;;;;21.40;19.10;;;;;;450540;262;1211;-60
2022/03/13 04:08:59;;;;;;;;;;;21.20;19.10;;;;;;450580;262;1113;-60
2022/03/13 04:11:00;;;;;;;;;;;21.30;19.20;;;;;;450458;263;1081;-60
2022/03/13 04:13:02;;;;;;;;;;;21.20;19.20;;;;;;450543;262;1108;-60
2022/03/13 04:15:03;;;;;;;;;;;21.20;19.20;;;;;;450501;262;1214;-59
2022/03/13 04:17:05;;;;;;;;;;;21.20;19.10;;;;;;450377;263;2203;-59
2022/03/13 04:19:07;;;;;;;;;;;21.30;19.20;;;;;;450684;262;1060;-59
2022/03/13 04:21:08;;;;;;;;;;;21.40;19.10;;;;;;450577;262;1428;-60
2022/03/13 04:23:09;;;;;;;;;;;21.40;19.10;;;;;;450504;262;1095;-59
2022/03/13 04:25:11;;;;;;;;;;;21.40;19.10;;;;;;450482;263;1072;-60
2022/03/13 04:27:12;;;;;;;;;;;21.40;19.10;;;;;;450445;263;1523;-60
2022/03/13 04:29:14;;;;;;;;;;;21.40;19.10;;;;;;450478;262;1515;-59
2022/03/13 04:31:15;;;;;;;;;;;21.30;19.10;;;;;;450502;262;1418;-60
2022/03/13 04:33:16;;;;;;;;;;;21.30;19.20;;;;;;450429;263;1565;-59
2022/03/13 04:35:17;;;;;;;;;;;21.30;19.20;;;;;;450466;263;1026;-60
2022/03/13 04:37:20;;;;;;;;;;;21.30;19.10;;;;;;450407;262;2135;-60
2022/03/13 04:39:20;;;;;;;;;;;21.30;19.20;;;;;;450404;263;1397;-60
2022/03/13 04:41:21;;;;;;;;;;;21.30;19.10;;;;;;450423;262;965;-59
2022/03/13 04:43:22;;;;;;;;;;;21.40;19.10;;;;;;450510;262;1124;-60
2022/03/13 04:45:25;;;;;;;;;;;21.30;19.10;;;;;;450440;263;1027;-60
2022/03/13 04:47:31;;;;;;;;;;;21.30;19.10;;;;;;450409;263;1425;-59
2022/03/13 04:49:27;;;;;;;;;;;21.40;19.10;;;;;;450489;263;1448;-60
2022/03/13 04:51:29;;;;;;;;;;;21.30;19.10;;;;;;450461;263;1181;-59
2022/03/13 04:53:30;;;;;;;;;;;21.20;19.20;;;;;;450632;262;1012;-60
2022/03/13 04:55:32;;;;;;;;;;;21.30;19.10;;;;;;450507;263;2210;-59
2022/03/13 04:57:33;;;;;;;;;;;21.40;19.20;;;;;;450490;262;1117;-59
2022/03/13 04:59:34;;;;;;;;;;;21.30;19.20;;;;;;450517;262;1073;-60
2022/03/13 05:01:35;;;;;;;;;;;21.30;19.20;;;;;;450429;262;1099;-60
2022/03/13 05:03:37;;;;;;;;;;;21.20;19.30;;;;;;450421;263;1017;-60
2022/03/13 05:05:39;;;;;;;;;;;21.20;19.20;;;;;;450418;260;1187;-60
2022/03/13 05:07:40;;;;;;;;;;;21.30;19.20;;;;;;450395;263;1416;-59
2022/03/13 05:09:41;;;;;;;;;;;21.20;19.30;;;;;;450477;262;960;-59
2022/03/13 05:11:42;;;;;;;;;;;21.30;19.30;;;;;;450495;262;1048;-59
2022/03/13 05:13:44;;;;;;;;;;;21.30;19.30;;;;;;450640;262;1091;-59
2022/03/13 05:15:45;;;;;;;;;;;21.30;19.30;;;;;;450438;263;2139;-60
2022/03/13 05:17:46;;;;;;;;;;;21.30;19.30;;;;;;450556;262;996;-60
2022/03/13 05:19:47;;;;;;;;;;;21.30;19.30;;;;;;450482;263;968;-59
2022/03/13 05:21:49;;;;;;;;;;;21.20;19.30;;;;;;450452;263;1215;-60
2022/03/13 05:23:50;;;;;;;;;;;21.20;19.30;;;;;;450489;263;1056;-59
2022/03/13 05:25:51;;;;;;;;;;;21.10;19.30;;;;;;450693;262;973;-59
2022/03/13 05:27:53;;;;;;;;;;;21.10;19.40;;;;;;450429;263;1108;-60
2022/03/13 05:29:54;;;;;;;;;;;21.10;19.40;;;;;;450507;262;1127;-60
2022/03/13 05:31:55;;;;;;;;;;;21.10;19.40;;;;;;450455;262;1064;-59
2022/03/13 05:33:57;;;;;;;;;;;21.10;19.50;;;;;;450432;262;966;-60
2022/03/13 05:35:59;;;;;;;;;;;21.10;19.40;;;;;;450608;262;2203;-59
2022/03/13 05:38:00;;;;;;;;;;;21.20;19.40;;;;;;450489;262;1224;-60
2022/03/13 05:40:01;;;;;;;;;;;21.30;19.40;;;;;;450693;262;989;-60
2022/03/13 05:42:06;;;;;;;;;;;21.30;19.30;;;;;;450475;262;1362;-59
2022/03/13 05:44:04;;;;;;;;;;;21.30;19.40;;;;;;450534;263;1428;-60
2022/03/13 05:46:06;;;;;;;;;;;21.30;19.30;;;;;;450405;263;1135;-59
2022/03/13 05:48:07;;;;;;;;;;;21.30;19.40;;;;;;450568;262;1130;-59
2022/03/13 05:50:08;;;;;;;;;;;21.30;19.40;;;;;;450498;262;1104;-60
2022/03/13 05:52:13;;;;;;;;;;;21.20;19.40;;;;;;450469;263;1306;-59
2022/03/13 05:54:11;;;;;;;;;;;21.20;19.40;;;;;;450588;262;1473;-59
2022/03/13 05:56:12;;;;;;;;;;;21.20;19.40;;;;;;450440;263;2214;-59
2022/03/13 05:58:14;;;;;;;;;;;21.30;19.50;;;;;;450660;262;1086;-60
2022/03/13 06:00:15;;;;;;;;;;;21.20;19.40;;;;;;450442;263;982;-60
2022/03/13 06:02:19;;;;;;;;;;;21.20;19.50;;;;;;450565;262;1106;-60
2022/03/13 06:04:18;;;;;;;;;;;21.20;19.50;;;;;;450471;262;1317;-59
2022/03/13 06:06:20;;;;;;;;;;;21.30;19.50;;;;;;450395;263;1157;-59
2022/03/13 06:08:20;;;;;;;;;;;21.30;19.50;;;;;;450412;263;1592;-60
2022/03/13 06:10:22;;;;;;;;;;;21.30;19.50;;;;;;450375;262;1045;-60
2022/03/13 06:12:23;;;;;;;;;;;21.30;19.60;;;;;;450593;262;1071;-60
2022/03/13 06:14:24;;;;;;;;;;;21.30;19.60;;;;;;450500;262;1209;-60
2022/03/13 06:16:26;;;;;;;;;;;21.30;19.70;;;;;;450400;263;2214;-59
2022/03/13 06:18:27;;;;;;;;;;;21.20;19.70;;;;;;450464;263;1153;-60
2022/03/13 06:20:29;;;;;;;;;;;21.20;19.70;;;;;;450456;262;1137;-59
2022/03/13 06:22:30;;;;;;;;;;;21.20;19.70;;;;;;450414;263;1305;-59
2022/03/13 06:24:32;;;;;;;;;;;21.30;19.70;;;;;;450476;262;1101;-59
2022/03/13 06:26:33;;;;;;;;;;;21.20;19.70;;;;;;450388;262;1519;-59
2022/03/13 06:28:34;;;;;;;;;;;21.20;19.60;;;;;;450480;263;1075;-59
2022/03/13 06:30:35;;;;;;;;;;;21.30;19.70;;;;;;450557;262;1096;-59
2022/03/13 06:32:37;;;;;;;;;;;21.20;19.70;;;;;;450465;262;990;-60
2022/03/13 06:34:38;;;;;;;;;;;21.20;19.70;;;;;;450498;263;977;-61
2022/03/13 06:36:40;;;;;;;;;;;21.20;19.60;;;;;;450474;262;2207;-60
2022/03/13 06:38:41;;;;;;;;;;;21.10;19.70;;;;;;450564;262;1220;-60
2022/03/13 06:40:42;;;;;;;;;;;21.10;19.70;;;;;;450479;263;1002;-60
2022/03/13 06:42:44;;;;;;;;;;;21.10;19.70;;;;;;450510;262;1076;-60
2022/03/13 06:44:45;;;;;;;;;;;21.10;19.70;;;;;;450486;263;1010;-59
2022/03/13 06:46:46;;;;;;;;;;;21.10;19.70;;;;;;450464;263;1024;-60
2022/03/13 06:48:48;;;;;;;;;;;21.10;19.70;;;;;;450475;263;1159;-59
2022/03/13 06:50:49;;;;;;;;;;;21.10;19.70;;;;;;450463;263;1068;-60
2022/03/13 06:52:50;;;;;;;;;;;21.20;19.70;;;;;;450459;262;1323;-60
2022/03/13 06:54:52;;;;;;;;;;;21.20;19.60;;;;;;450540;262;959;-60
2022/03/13 06:56:53;;;;;;;;;;;21.30;19.60;;;;;;450436;263;2210;-59
2022/03/13 06:58:58;;;;;;;;;;;21.20;19.60;;;;;;450606;260;1165;-59
2022/03/13 07:00:56;;;;;;;;;;;21.20;19.60;;;;;;450543;262;1416;-59
2022/03/13 07:02:57;;;;;;;;;;;21.30;19.50;;;;;;450563;262;991;-59
2022/03/13 07:04:58;;;;;;;;;;;21.30;19.50;;;;;;450560;262;1063;-60
2022/03/13 07:07:00;;;;;;;;;;;21.40;19.50;;;;;;450449;263;984;-61
2022/03/13 07:09:01;;;;;;;;;;;21.40;19.50;;;;;;450480;263;1308;-59
2022/03/13 07:11:03;;;;;;;;;;;21.40;19.50;;;;;;450601;262;976;-59
2022/03/13 07:13:04;;;;;;;;;;;21.40;19.50;;;;;;450458;263;981;-60
2022/03/13 07:15:08;;;;;;;;;;;21.50;19.50;;;;;;450636;262;1101;-60
2022/03/13 07:17:07;;;;;;;;;;;21.40;19.50;;;;;;450369;263;2206;-59
2022/03/13 07:19:08;;;;;;;;;;;21.50;19.50;;;;;;450448;262;1145;-59
2022/03/13 07:21:09;;;;;;;;;;;21.40;19.50;;;;;;450405;262;1086;-60
2022/03/13 07:23:11;;;;;;;;;;;21.40;19.50;;;;;;450427;262;1076;-60
2022/03/13 07:25:12;;;;;;;;;;;21.40;19.60;;;;;;450456;262;1235;-59
2022/03/13 07:27:14;;;;;;;;;;;21.40;19.50;;;;;;450420;263;1242;-60
2022/03/13 07:29:15;;;;;;;;;;;21.40;19.50;;;;;;450648;262;1115;-60
2022/03/13 07:31:17;;;;;;;;;;;21.50;19.50;;;;;;450444;262;1091;-59
2022/03/13 07:33:18;;;;;;;;;;;21.50;19.50;;;;;;450369;263;1087;-60
2022/03/13 07:35:19;;;;;;;;;;;21.40;19.50;;;;;;450606;262;1102;-59
2022/03/13 07:37:21;;;;;;;;;;;21.50;19.60;;;;;;450430;262;2206;-59
2022/03/13 07:39:22;;;;;;;;;;;21.50;19.60;;;;;;450426;262;1223;-60
2022/03/13 07:41:23;;;;;;;;;;;21.50;19.50;;;;;;450563;262;1100;-60
2022/03/13 07:43:25;;;;;;;;;;;21.50;19.60;;;;;;450479;263;1102;-59
2022/03/13 07:45:26;;;;;;;;;;;21.40;19.60;;;;;;450416;262;1266;-60
2022/03/13 07:47:30;;;;;;;;;;;21.50;19.60;;;;;;450442;263;1098;-60
2022/03/13 07:49:29;;;;;;;;;;;21.40;19.70;;;;;;450475;262;2028;-60
2022/03/13 07:51:32;;;;;;;;;;;21.30;19.70;;;;;;450499;262;1117;-60
2022/03/13 07:53:32;;;;;;;;;;;21.30;19.70;;;;;;450477;263;1586;-59
2022/03/13 07:55:33;;;;;;;;;;;21.30;19.80;;;;;;450475;262;1168;-60
2022/03/13 07:57:35;;;;;;;;;;;21.30;19.80;;;;;;450441;262;2214;-60
2022/03/13 07:59:36;;;;;;;;;;;21.40;19.80;;;;;;450516;262;1123;-60
2022/03/13 08:01:37;;;;;;;;;;;21.40;19.80;;;;;;450433;262;1113;-60
2022/03/13 08:03:39;;;;;;;;;;;21.40;19.80;;;;;;450473;262;1099;-60
2022/03/13 08:05:40;;;;;;;;;;;21.50;19.70;;;;;;450514;262;1095;-59
2022/03/13 08:07:41;;;;;;;;;;;21.40;19.80;;;;;;450441;263;1073;-60
2022/03/13 08:09:43;;;;;;;;;;;21.40;19.80;;;;;;450491;262;1169;-60
2022/03/13 08:11:44;;;;;;;;;;;21.50;19.70;;;;;;450362;263;1074;-59
2022/03/13 08:13:47;;;;;;;;;;;21.50;19.70;;;;;;450459;262;1096;-59
2022/03/13 08:15:47;;;;;;;;;;;21.50;19.80;;;;;;450396;263;1453;-60
2022/03/13 08:17:48;;;;;;;;;;;21.50;19.80;;;;;;450443;262;2230;-59
2022/03/13 08:19:49;;;;;;;;;;;21.50;19.80;;;;;;450408;262;981;-60
2022/03/13 08:21:51;;;;;;;;;;;21.50;19.80;;;;;;450463;262;1076;-59
2022/03/13 08:23:52;;;;;;;;;;;21.40;20.00;;;;;;450428;263;988;-60
2022/03/13 08:25:53;;;;;;;;;;;21.50;19.90;;;;;;450485;262;1168;-60
2022/03/13 08:27:55;;;;;;;;;;;21.50;20.00;;;;;;450542;262;1080;-60
2022/03/13 08:29:57;;;;;;;;;;;21.40;20.00;;;;;;450530;262;1410;-61
2022/03/13 08:31:58;;;;;;;;;;;21.40;20.00;;;;;;450379;263;1551;-59
2022/03/13 08:33:59;;;;;;;;;;;21.40;20.00;;;;;;450493;262;1023;-59
2022/03/13 08:36:01;;;;;;;;;;;21.40;20.00;;;;;;450453;263;1074;-59
2022/03/13 08:38:02;;;;;;;;;;;21.30;20.00;;;;;;450412;263;2160;-59
2022/03/13 08:40:03;;;;;;;;;;;21.40;20.10;;;;;;450456;263;1314;-60
2022/03/13 08:42:05;;;;;;;;;;;21.50;20.10;;;;;;450438;262;985;-60
2022/03/13 08:44:08;;;;;;;;;;;21.40;20.10;;;;;;450581;262;1012;-59
2022/03/13 08:46:08;;;;;;;;;;;21.40;20.20;;;;;;450571;262;1415;-59
2022/03/13 08:48:09;;;;;;;;;;;21.40;20.20;;;;;;450482;263;1065;-59
2022/03/13 08:50:11;;;;;;;;;;;21.40;20.20;;;;;;450580;262;1085;-59
2022/03/13 08:52:11;;;;;;;;;;;21.40;20.30;;;;;;450462;262;1429;-59
2022/03/13 08:54:16;;;;;;;;;;;21.40;20.30;;;;;;450476;262;1118;-59
2022/03/13 08:56:15;;;;;;;;;;;21.40;20.30;;;;;;450491;263;1450;-60
2022/03/13 08:58:16;;;;;;;;;;;21.30;20.30;;;;;;450418;262;2199;-60
2022/03/13 09:00:19;;;;;;;;;;;21.40;20.30;;;;;;450395;263;1111;-59
2022/03/13 09:02:22;;;;;;;;;;;21.50;20.40;;;;;;450473;262;2399;-59
2022/03/13 09:04:20;;;;;;;;;;;21.40;20.40;;;;;;450459;262;1449;-59
2022/03/13 09:06:22;;;;;;;;;;;21.50;20.40;;;;;;450513;262;1024;-59
2022/03/13 09:08:23;;;;;;;;;;;21.40;20.40;;;;;;450484;263;2067;-59
2022/03/13 09:10:24;;;;;;;;;;;21.40;20.50;;;;;;450443;263;1135;-60
2022/03/13 09:12:26;;;;;;;;;;;21.40;20.50;;;;;;450453;263;1092;-61
2022/03/13 09:14:27;;;;;;;;;;;21.50;20.60;;;;;;450419;263;1123;-59
2022/03/13 09:16:29;;;;;;;;;;;21.60;20.60;;;;;;450541;262;1094;-60
2022/03/13 09:18:30;;;;;;;;;;;21.50;20.60;;;;;;450414;263;2151;-60
2022/03/13 09:20:31;;;;;;;;;;;21.50;20.60;;;;;;450430;263;1386;-60
2022/03/13 09:22:32;;;;;;;;;;;21.40;20.80;;;;;;450449;263;1162;-60
2022/03/13 09:24:34;;;;;;;;;;;21.40;20.70;;;;;;450471;263;1015;-60
2022/03/13 09:26:35;;;;;;;;;;;21.40;20.80;;;;;;450435;263;1382;-59
2022/03/13 09:28:37;;;;;;;;;;;21.40;20.80;;;;;;450463;263;1089;-59
2022/03/13 09:30:39;;;;;;;;;;;21.40;20.80;;;;;;450392;263;1446;-60
2022/03/13 09:32:39;;;;;;;;;;;21.40;20.80;;;;;;450469;263;1521;-59
2022/03/13 09:34:40;;;;;;;;;;;21.40;20.90;;;;;;450423;263;999;-58
2022/03/13 09:36:42;;;;;;;;;;;21.40;20.90;;;;;;450406;263;991;-60
2022/03/13 09:38:43;;;;;;;;;;;21.50;20.90;;;;;;450435;263;2139;-60
2022/03/13 09:40:44;;;;;;;;;;;21.60;20.90;;;;;;450501;262;1182;-60
2022/03/13 09:42:45;;;;;;;;;;;21.50;20.90;;;;;;450478;262;987;-60
2022/03/13 09:44:47;;;;;;;;;;;21.50;20.90;;;;;;450556;262;1092;-59
2022/03/13 09:46:48;;;;;;;;;;;21.50;21.00;;;;;;450450;263;970;-60
2022/03/13 09:48:49;;;;;;;;;;;21.50;21.00;;;;;;450654;262;1104;-60
2022/03/13 09:50:51;;;;;;;;;;;21.50;21.10;;;;;;450461;262;1070;-60
2022/03/13 09:52:52;;;;;;;;;;;21.40;21.10;;;;;;450398;262;1086;-59
2022/03/13 09:54:53;;;;;;;;;;;21.40;21.20;;;;;;450471;262;1056;-60
2022/03/13 09:56:55;;;;;;;;;;;21.40;21.30;;;;;;450478;262;1214;-60
2022/03/13 09:58:56;;;;;;;;;;;21.40;21.30;;;;;;450450;263;2131;-59
2022/03/13 10:00:57;;;;;;;;;;;21.40;21.20;;;;;;450429;263;1016;-59
2022/03/13 10:02:59;;;;;;;;;;;21.40;21.30;;;;;;450437;262;1061;-60
2022/03/13 10:05:00;;;;;;;;;;;21.40;21.20;;;;;;450460;263;1094;-60
2022/03/13 10:07:01;;;;;;;;;;;21.50;21.20;;;;;;450459;262;1105;-59
2022/03/13 10:09:03;;;;;;;;;;;21.60;21.20;;;;;;450446;263;981;-60
2022/03/13 10:11:04;;;;;;;;;;;21.50;21.30;;;;;;450557;262;1108;-59
2022/03/13 10:13:05;;;;;;;;;;;21.50;21.30;;;;;;450536;262;1062;-58
2022/03/13 10:15:07;;;;;;;;;;;21.50;21.30;;;;;;450470;263;1025;-60
2022/03/13 10:17:08;;;;;;;;;;;21.50;21.30;;;;;;450307;262;1222;-59
2022/03/13 10:19:10;;;;;;;;;;;21.40;21.40;;;;;;450399;263;2214;-59
2022/03/13 10:21:12;;;;;;;;;;;21.40;21.40;;;;;;450426;262;1271;-59
2022/03/13 10:23:16;;;;;;;;;;;21.40;21.30;;;;;;450486;262;1067;-59
2022/03/13 10:25:15;;;;;;;;;;;21.40;21.40;;;;;;450524;262;1470;-59
2022/03/13 10:27:15;;;;;;;;;;;21.50;21.30;;;;;;450451;263;1718;-60
2022/03/13 10:29:17;;;;;;;;;;;21.50;21.30;;;;;;450521;263;1007;-59
2022/03/13 10:31:18;;;;;;;;;;;21.50;21.40;;;;;;450436;263;1031;-60
2022/03/13 10:33:19;;;;;;;;;;;21.50;21.30;;;;;;450498;262;1067;-60
2022/03/13 10:35:20;;;;;;;;;;;21.60;21.40;;;;;;450502;263;1097;-59
2022/03/13 10:37:22;;;;;;;;;;;21.50;21.30;;;;;;450609;262;1068;-59
2022/03/13 10:39:23;;;;;;;;;;;21.60;21.40;;;;;;450460;262;2152;-59
2022/03/13 10:41:25;;;;;;;;;;;21.60;21.40;;;;;;450502;262;1166;-59
2022/03/13 10:43:29;;;;;;;;;;;21.60;21.40;;;;;;450508;262;1563;-59
2022/03/13 10:45:30;;;;;;;;;;;21.50;21.40;;;;;;450377;262;1370;-60
2022/03/13 10:47:31;;;;;;;;;;;21.50;21.50;;;;;;450399;262;1389;-60
2022/03/13 10:49:31;;;;;;;;;;;21.50;21.50;;;;;;450541;262;1411;-59
2022/03/13 10:51:32;;;;;;;;;;;21.50;21.50;;;;;;450581;262;1036;-59
2022/03/13 10:53:33;;;;;;;;;;;21.50;21.50;;;;;;450502;262;1108;-60
2022/03/13 10:55:35;;;;;;;;;;;21.60;21.50;;;;;;450462;263;1079;-60
2022/03/13 10:57:36;;;;;;;;;;;21.60;21.50;;;;;;450469;263;1211;-60
2022/03/13 10:59:37;;;;;;;;;;;21.60;21.60;;;;;;450492;262;2206;-60
2022/03/13 11:01:39;;;;;;;;;;;21.50;21.50;;;;;;450415;263;1074;-59
2022/03/13 11:03:40;;;;;;;;;;;21.60;21.60;;;;;;450500;262;1237;-60
2022/03/13 11:05:41;;;;;;;;;;;21.50;21.60;;;;;;450422;263;1106;-60
2022/03/13 11:07:43;;;;;;;;;;;21.50;21.60;;;;;;450478;262;1088;-59
2022/03/13 11:09:44;;;;;;;;;;;21.60;21.60;;;;;;450463;263;1093;-59
2022/03/13 11:11:47;;;;;;;;;;;21.60;21.60;;;;;;450488;262;1235;-59
2022/03/13 11:13:47;;;;;;;;;;;21.50;21.70;;;;;;450489;262;1480;-60
2022/03/13 11:15:48;;;;;;;;;;;21.60;21.70;;;;;;450403;263;1614;-60
2022/03/13 11:17:49;;;;;;;;;;;21.60;21.70;;;;;;450421;263;2214;-60
2022/03/13 11:19:51;;;;;;;;;;;21.50;21.70;;;;;;450462;262;1406;-59
2022/03/13 11:21:52;;;;;;;;;;;21.60;21.70;;;;;;450431;263;957;-59
2022/03/13 11:23:53;;;;;;;;;;;21.50;21.70;;;;;;450536;262;1063;-59
2022/03/13 11:25:55;;;;;;;;;;;21.50;21.70;;;;;;450628;262;969;-59
2022/03/13 11:27:57;;;;;;;;;;;21.50;21.80;;;;;;450449;263;1174;-60
2022/03/13 11:29:57;;;;;;;;;;;21.50;21.70;;;;;;450499;262;1403;-59
2022/03/13 11:31:59;;;;;;;;;;;21.50;21.70;;;;;;450368;263;1109;-59
2022/03/13 11:34:00;;;;;;;;;;;21.50;21.80;;;;;;450463;262;1250;-59
2022/03/13 11:36:01;;;;;;;;;;;21.60;21.70;;;;;;450529;262;1023;-59
2022/03/13 11:38:03;;;;;;;;;;;21.60;21.70;;;;;;450442;262;2139;-60
2022/03/13 11:40:04;;;;;;;;;;;21.90;21.60;;;;;;450440;263;1129;-60
2022/03/13 11:42:06;;;;;;;;;;;21.50;21.90;;;;;;450424;262;1183;-59
2022/03/13 11:44:09;;;;;;;;;;;21.30;21.90;;;;;;450411;262;1220;-60
2022/03/13 11:46:08;;;;;;;;;;;21.20;22.00;;;;;;450450;262;1631;-60
2022/03/13 11:48:12;;;;;;;;;;;21.40;22.00;;;;;;450468;262;1008;-60
2022/03/13 11:50:11;;;;;;;;;;;21.40;21.90;;;;;;450530;262;1423;-60
2022/03/13 11:52:12;;;;;;;;;;;21.60;21.80;;;;;;450417;263;1074;-60
2022/03/13 11:54:15;;;;;;;;;;;21.50;21.90;;;;;;450546;262;1048;-59
2022/03/13 11:56:16;;;;;;;;;;;21.50;21.80;;;;;;450454;263;1255;-59